Time;durP1;ratioP1;P1;durP2;ratioP2;P2;SDS_P1;SDS_P2;PMS_P1;PMS_P2;Temp;Humidity;BMP_temperature;BMP_pressure;BME280_temperature;BME280_humidity;BME280_pressure;Samples;Min_cycle;Max_cycle;Signal;HPM_P1;HPM_P2
2021/12/09 00:02:02;;;;;;;18.38;9.35;;;;;;;0.16;99.75;100135.97;5113868;28;20102;-76
2021/12/09 00:04:30;;;;;;;22.02;9.52;;;;;;;0.56;99.84;100212.56;5113792;28;20126;-80
2021/12/09 00:06:58;;;;;;;17.98;9.45;;;;;;;0.53;99.68;100211.84;5114088;28;20381;-76
2021/12/09 00:09:23;;;;;;;15.52;9.20;;;;;;;0.51;99.61;100211.88;5114012;28;20089;-86
2021/12/09 00:11:50;;;;;;;20.42;9.63;;;;;;;0.42;99.97;100196.94;5113624;28;20027;-76
2021/12/09 00:14:25;;;;;;;17.27;9.52;;;;;;;0.48;99.87;100206.88;5111568;28;20039;-80
2021/12/09 00:16:53;;;;;;;17.48;9.02;;;;;;;0.44;99.68;100199.41;5114061;28;20024;-85
2021/12/09 00:19:19;;;;;;;16.25;9.68;;;;;;;0.48;99.84;100200.97;5113520;28;20032;-86
2021/12/09 00:21:44;;;;;;;19.17;9.02;;;;;;;0.27;99.88;100172.00;5113751;28;20058;-76
2021/12/09 00:24:10;;;;;;;19.90;9.18;;;;;;;0.37;99.92;100191.16;5113312;28;20063;-85
2021/12/09 00:26:36;;;;;;;18.27;9.43;;;;;;;0.44;100.00;100218.03;5113497;28;20489;-76
2021/12/09 00:29:01;;;;;;;20.38;9.13;;;;;;;0.44;100.00;100205.31;5113411;28;20391;-83
2021/12/09 00:31:27;;;;;;;20.65;9.52;;;;;;;0.43;100.00;100200.31;5113623;28;20110;-76
2021/12/09 00:33:55;;;;;;;17.40;9.90;;;;;;;0.44;100.00;100202.78;5113562;28;20050;-83
2021/12/09 00:36:27;;;;;;;19.67;9.82;;;;;;;0.44;100.00;100205.31;5113385;28;20019;-84
2021/12/09 00:38:58;;;;;;;17.40;9.57;;;;;;;0.43;100.00;100208.75;5111752;28;20047;-87
2021/12/09 00:41:23;;;;;;;17.25;9.32;;;;;;;0.33;100.00;100184.53;5112027;28;20487;-81
2021/12/09 00:43:50;;;;;;;20.15;9.38;;;;;;;0.42;100.00;100208.81;5112926;28;20016;-78
2021/12/09 00:46:16;;;;;;;19.58;9.80;;;;;;;0.19;100.00;100161.25;5113120;28;20489;-84
2021/12/09 00:48:42;;;;;;;20.23;9.30;;;;;;;0.46;100.00;100210.34;5113393;28;20043;-86
2021/12/09 00:51:08;;;;;;;19.60;9.85;;;;;;;0.27;100.00;100177.91;5113035;28;20024;-77
2021/12/09 00:53:34;;;;;;;16.40;8.43;;;;;;;0.48;100.00;100216.22;5113069;28;20032;-77
2021/12/09 00:55:59;;;;;;;20.13;9.40;;;;;;;0.47;100.00;100212.00;5113214;28;20455;-79
2021/12/09 00:58:25;;;;;;;17.20;9.18;;;;;;;0.39;100.00;100193.63;5113121;28;20027;-85
2021/12/09 01:00:50;;;;;;;19.33;9.95;;;;;;;0.48;100.00;100211.13;5113018;28;20046;-86
2021/12/09 01:03:17;;;;;;;18.75;8.77;;;;;;;0.52;100.00;100207.63;5112974;28;20028;-76
2021/12/09 01:05:44;;;;;;;15.95;9.85;;;;;;;0.64;100.00;100216.56;5113107;28;20119;-87
2021/12/09 01:08:10;;;;;;;17.92;9.57;;;;;;;0.69;100.00;100222.31;5112753;28;20024;-85
2021/12/09 01:10:35;;;;;;;15.90;8.88;;;;;;;0.81;100.00;100215.16;5113233;28;20016;-83
2021/12/09 01:13:01;;;;;;;15.25;8.70;;;;;;;0.66;99.80;100176.69;5113047;28;20497;-83
2021/12/09 01:15:27;;;;;;;18.48;9.77;;;;;;;-0.09;99.29;100058.06;5112995;28;20069;-75
2021/12/09 01:17:53;;;;;;;16.17;8.38;;;;;;;0.88;99.02;100220.00;5113127;28;20030;-85
2021/12/09 01:20:25;;;;;;;15.77;8.68;;;;;;;0.84;99.16;100226.91;5112846;28;20031;-86
2021/12/09 01:22:54;;;;;;;19.13;8.98;;;;;;;0.86;99.13;100222.59;5112989;28;20049;-86
2021/12/09 01:25:22;;;;;;;17.63;8.80;;;;;;;0.82;98.63;100219.34;5113627;28;20130;-77
2021/12/09 01:27:49;;;;;;;15.07;8.82;;;;;;;0.77;98.65;100222.91;5117119;28;20463;-81
2021/12/09 01:30:17;;;;;;;15.77;8.35;;;;;;;0.42;98.89;100180.88;5117007;28;20039;-86
2021/12/09 01:32:50;;;;;;;17.63;8.75;;;;;;;0.49;98.88;100203.50;5117035;28;20024;-86
2021/12/09 01:35:17;;;;;;;16.95;9.30;;;;;;;0.63;99.49;100230.16;5115886;28;20479;-84
2021/12/09 01:37:44;;;;;;;18.10;8.18;;;;;;;0.59;99.25;100231.97;5115228;28;20431;-85
2021/12/09 01:40:09;;;;;;;18.20;8.75;;;;;;;0.54;99.49;100232.09;5116744;27;20019;-83
2021/12/09 01:42:36;;;;;;;17.15;8.77;;;;;;;0.47;99.40;100223.00;5115034;28;20504;-75
2021/12/09 01:45:04;;;;;;;17.50;9.02;;;;;;;0.46;99.68;100226.41;5116646;28;20036;-83
2021/12/09 01:47:29;;;;;;;16.83;8.82;;;;;;;0.42;99.64;100224.88;5116987;28;20045;-76
2021/12/09 01:49:55;;;;;;;22.08;10.00;;;;;;;0.44;99.89;100228.19;5116708;28;20073;-84
2021/12/09 01:52:20;;;;;;;19.00;8.82;;;;;;;0.41;99.80;100224.91;5116665;28;20024;-76
2021/12/09 01:54:46;;;;;;;17.17;8.75;;;;;;;0.35;99.94;100220.03;5116490;28;20028;-76
2021/12/09 01:57:11;;;;;;;15.68;9.05;;;;;;;0.25;100.00;100207.59;5116510;28;20059;-82
2021/12/09 01:59:37;;;;;;;17.77;8.63;;;;;;;0.35;100.00;100228.47;5116363;28;20031;-80
2021/12/09 02:02:03;;;;;;;15.63;8.65;;;;;;;0.14;99.71;100203.72;5116292;28;20019;-77
2021/12/09 02:04:28;;;;;;;19.48;8.95;;;;;;;0.13;100.00;100207.97;5116259;28;20134;-86
2021/12/09 02:06:54;;;;;;;19.48;10.80;;;;;;;0.26;100.00;100221.13;5116357;28;20127;-76
2021/12/09 02:09:20;;;;;;;22.65;9.35;;;;;;;0.13;100.00;100207.16;5116292;28;20028;-79
2021/12/09 02:11:46;;;;;;;15.90;8.88;;;;;;;0.20;100.00;100223.88;5116237;28;20173;-82
2021/12/09 02:14:12;;;;;;;17.50;9.63;;;;;;;-0.12;100.00;100168.97;5116017;28;20073;-84
2021/12/09 02:16:39;;;;;;;18.42;9.43;;;;;;;0.09;100.00;100206.38;5116168;28;20072;-84
2021/12/09 02:19:05;;;;;;;17.40;10.02;;;;;;;0.14;100.00;100208.81;5116069;28;20098;-85
2021/12/09 02:21:33;;;;;;;18.67;9.52;;;;;;;0.18;100.00;100212.91;5116178;28;20387;-77
2021/12/09 02:24:06;;;;;;;17.48;9.50;;;;;;;0.15;100.00;100210.47;5116162;27;20035;-82
2021/12/09 02:26:36;;;;;;;18.85;9.55;;;;;;;0.12;100.00;100215.66;5115907;28;20487;-76
2021/12/09 02:29:04;;;;;;;18.67;8.73;;;;;;;0.09;100.00;100211.47;5115733;28;20467;-76
2021/12/09 02:31:30;;;;;;;21.25;9.65;;;;;;;0.08;100.00;100209.81;5114832;28;20378;-86
2021/12/09 02:33:57;;;;;;;20.92;9.30;;;;;;;0.04;100.00;100223.47;5116083;28;20107;-85
2021/12/09 02:36:23;;;;;;;18.30;9.48;;;;;;;0.04;100.00;100212.50;5115347;28;20087;-84
2021/12/09 02:38:50;;;;;;;17.95;8.70;;;;;;;0.02;100.00;100216.78;5115737;28;20142;-81
2021/12/09 02:41:23;;;;;;;18.33;9.27;;;;;;;0.01;100.00;100215.97;5115702;28;20076;-85
2021/12/09 02:43:55;;;;;;;17.75;9.52;;;;;;;0.00;100.00;100216.84;5115420;28;20032;-85
2021/12/09 02:46:22;;;;;;;18.65;9.30;;;;;;;-0.22;100.00;100183.63;5115587;28;20024;-76
2021/12/09 02:48:47;;;;;;;17.17;9.43;;;;;;;-0.08;100.00;100208.63;5115629;28;20370;-85
2021/12/09 02:51:13;;;;;;;19.48;8.85;;;;;;;-0.23;100.00;100193.81;5115579;28;20032;-84
2021/12/09 02:53:38;;;;;;;17.23;9.20;;;;;;;-0.06;100.00;100222.09;5114245;28;20031;-76
2021/12/09 02:56:04;;;;;;;14.02;8.70;;;;;;;-0.05;100.00;100224.56;5115135;28;20039;-75
2021/12/09 02:58:30;;;;;;;21.35;9.93;;;;;;;-0.06;100.00;100234.78;5115192;28;20031;-84
2021/12/09 03:01:00;;;;;;;23.20;9.40;;;;;;;-0.07;100.00;100228.88;5115351;28;20494;-76
2021/12/09 03:03:27;;;;;;;19.38;9.85;;;;;;;-0.08;100.00;100234.00;5115354;27;20027;-86
2021/12/09 03:05:54;;;;;;;20.42;9.27;;;;;;;-0.09;100.00;100234.88;5115276;28;20036;-75
2021/12/09 03:08:24;;;;;;;18.17;8.52;;;;;;;-0.11;100.00;100234.06;5114022;28;20110;-76
2021/12/09 03:10:50;;;;;;;17.17;8.43;;;;;;;-0.11;100.00;100244.22;5113760;28;20028;-75
2021/12/09 03:13:17;;;;;;;16.05;9.13;;;;;;;-0.42;100.00;100196.88;5113459;28;20065;-76
2021/12/09 03:15:42;;;;;;;19.45;8.93;;;;;;;-0.13;100.00;100239.19;5115114;28;20024;-83
2021/12/09 03:18:08;;;;;;;19.08;10.18;;;;;;;-0.30;100.00;100218.53;5115097;28;20104;-75
2021/12/09 03:20:33;;;;;;;18.23;8.63;;;;;;;-0.14;100.00;100244.31;5114609;28;20114;-76
2021/12/09 03:22:59;;;;;;;18.98;8.63;;;;;;;-0.16;100.00;100256.22;5115063;27;20028;-76
2021/12/09 03:25:24;;;;;;;18.48;8.50;;;;;;;-0.18;100.00;100261.34;5114678;28;20114;-84
2021/12/09 03:27:49;;;;;;;17.58;8.77;;;;;;;-0.20;100.00;100260.53;5114475;27;20024;-81
2021/12/09 03:30:18;;;;;;;18.92;8.98;;;;;;;-0.23;100.00;100258.09;5114894;28;20024;-76
2021/12/09 03:32:43;;;;;;;17.38;8.60;;;;;;;-0.27;100.00;100248.09;5114779;28;20034;-81
2021/12/09 03:35:11;;;;;;;19.35;8.70;;;;;;;-0.28;100.00;100248.97;5114861;28;20391;-85
2021/12/09 03:37:37;;;;;;;18.70;8.27;;;;;;;-0.19;100.00;100267.28;5114586;28;20024;-77
2021/12/09 03:40:06;;;;;;;19.77;8.60;;;;;;;-0.21;100.00;100263.94;5114444;28;20028;-76
2021/12/09 03:42:32;;;;;;;15.98;8.60;;;;;;;-0.64;100.00;100188.22;5114235;28;20111;-75
2021/12/09 03:44:58;;;;;;;17.88;8.50;;;;;;;-0.21;100.00;100256.31;5114691;28;20055;-76
2021/12/09 03:47:27;;;;;;;17.83;8.05;;;;;;;-0.20;100.00;100272.38;5114142;28;20032;-86
2021/12/09 03:49:53;;;;;;;18.83;8.27;;;;;;;-0.46;100.00;100233.38;5113986;28;20024;-76
2021/12/09 03:52:19;;;;;;;25.13;8.65;;;;;;;-0.29;100.00;100263.34;5114458;27;20363;-76
2021/12/09 03:54:45;;;;;;;15.88;8.45;;;;;;;-0.39;100.00;100252.63;5113900;28;20026;-75
2021/12/09 03:57:12;;;;;;;18.90;9.20;;;;;;;-0.39;100.00;100249.25;5112345;28;20091;-76
2021/12/09 03:59:38;;;;;;;19.17;8.20;;;;;;;-0.57;100.00;100230.28;5114155;28;20127;-75
2021/12/09 04:02:05;;;;;;;17.88;8.48;;;;;;;-0.33;100.00;100275.25;5114285;28;20054;-75
2021/12/09 04:04:31;;;;;;;17.40;8.07;;;;;;;-0.32;100.00;100271.03;5113983;28;20071;-84
2021/12/09 04:06:56;;;;;;;22.52;8.68;;;;;;;-0.33;100.00;100270.19;5114041;28;20439;-84
2021/12/09 04:09:23;;;;;;;18.27;7.97;;;;;;;-0.47;100.00;100246.09;5113815;28;20106;-83
2021/12/09 04:11:50;;;;;;;20.83;8.07;;;;;;;-0.42;100.00;100249.31;5113553;28;20019;-79
2021/12/09 04:14:16;;;;;;;18.70;7.57;;;;;;;-0.33;100.00;100267.66;5114008;28;20028;-79
2021/12/09 04:16:42;;;;;;;19.02;8.15;;;;;;;-0.64;100.00;100208.50;5114067;28;20019;-76
2021/12/09 04:19:11;;;;;;;16.20;8.15;;;;;;;-0.32;100.00;100261.69;5113903;28;20482;-78
2021/12/09 04:21:38;;;;;;;17.38;7.47;;;;;;;-0.31;100.00;100257.47;5113781;28;20493;-83
2021/12/09 04:24:07;;;;;;;16.33;7.10;;;;;;;-0.31;100.00;100262.53;5113536;28;20028;-84
2021/12/09 04:26:42;;;;;;;16.70;7.85;;;;;;;-0.43;100.00;100257.81;5113445;28;20031;-83
2021/12/09 04:29:09;;;;;;;20.52;8.00;;;;;;;-0.46;100.00;100252.81;5113823;28;20405;-78
2021/12/09 04:31:36;;;;;;;21.13;7.38;;;;;;;-0.38;100.00;100273.75;5113501;28;20540;-76
2021/12/09 04:34:02;;;;;;;14.15;6.90;;;;;;;-0.49;100.00;100261.34;5113783;28;20069;-79
2021/12/09 04:36:28;;;;;;;14.70;7.03;;;;;;;-0.53;100.00;100254.69;5113403;28;20482;-76
2021/12/09 04:38:54;;;;;;;16.08;7.05;;;;;;;-0.53;100.00;100261.47;5113470;28;20051;-77
2021/12/09 04:41:20;;;;;;;15.23;7.22;;;;;;;-0.57;100.00;100247.22;5113124;28;20016;-75
2021/12/09 04:43:46;;;;;;;17.17;7.32;;;;;;;-0.61;100.00;100244.72;5113258;28;20024;-85
2021/12/09 04:46:12;;;;;;;14.75;7.00;;;;;;;-0.63;100.00;100241.41;5111680;28;20059;-77
2021/12/09 04:48:38;;;;;;;14.13;6.63;;;;;;;-0.38;100.00;100288.97;5113330;28;20019;-76
2021/12/09 04:51:04;;;;;;;18.42;6.20;;;;;;;-0.52;100.00;100265.66;5113284;28;20538;-84
2021/12/09 04:53:29;;;;;;;15.18;6.45;;;;;;;-0.43;100.00;100276.38;5113435;28;20051;-76
2021/12/09 04:55:54;;;;;;;16.30;6.55;;;;;;;-0.46;100.00;100263.78;5112956;28;20020;-84
2021/12/09 04:58:23;;;;;;;17.10;7.43;;;;;;;-0.36;100.00;100285.50;5113187;28;20062;-86
2021/12/09 05:00:49;;;;;;;17.27;6.57;;;;;;;-0.44;100.00;100268.81;5112042;28;20043;-85
2021/12/09 05:03:15;;;;;;;15.30;7.57;;;;;;;-0.62;100.00;100245.59;5113157;28;20428;-83
2021/12/09 05:05:47;;;;;;;19.38;7.68;;;;;;;-0.38;100.00;100277.09;5112814;28;20082;-78
2021/12/09 05:08:15;;;;;;;15.50;6.43;;;;;;;-0.38;100.00;100272.03;5113127;28;20035;-76
2021/12/09 05:13:32;;;;;;;14.20;6.07;;;;;;;-0.52;100.00;100260.59;5113392;28;20391;-77
2021/12/09 05:15:59;;;;;;;24.00;7.70;;;;;;;-0.40;100.00;100288.97;5113174;28;20107;-76
2021/12/09 05:18:27;;;;;;;13.48;6.45;;;;;;;-0.72;100.00;100241.66;5112985;28;20077;-81
2021/12/09 05:20:54;;;;;;;13.73;6.68;;;;;;;-0.53;100.00;100271.59;5113154;28;20117;-76
2021/12/09 05:23:21;;;;;;;18.38;6.85;;;;;;;-0.64;100.00;100256.66;5112804;28;20111;-86
2021/12/09 05:25:47;;;;;;;13.82;6.50;;;;;;;-0.65;100.00;100258.38;5111181;28;20089;-77
2021/12/09 05:28:16;;;;;;;15.35;6.30;;;;;;;-0.41;100.00;100297.47;5112955;28;20015;-76
2021/12/09 05:33:32;;;;;;;13.32;5.88;;;;;;;-0.50;100.00;100282.47;5113185;28;20038;-80
2021/12/09 05:35:57;;;;;;;12.05;6.32;;;;;;;-0.41;100.00;100289.84;5112691;28;20024;-75
2021/12/09 05:38:22;;;;;;;12.68;6.63;;;;;;;-0.45;100.00;100282.38;5112953;28;20429;-86
2021/12/09 05:40:48;;;;;;;15.25;6.28;;;;;;;-0.40;100.00;100293.22;5112750;28;20036;-83
2021/12/09 05:43:15;;;;;;;14.73;6.20;;;;;;;-0.41;100.00;100291.56;5113151;28;20417;-84
2021/12/09 05:45:41;;;;;;;17.27;6.78;;;;;;;-0.39;100.00;100293.22;5112704;28;20028;-75
2021/12/09 05:48:07;;;;;;;17.40;7.78;;;;;;;-0.51;100.00;100285.06;5112657;28;20085;-76
2021/12/09 05:50:34;;;;;;;18.38;6.90;;;;;;;-0.39;100.00;100305.88;5112634;28;20031;-85
2021/12/09 05:53:00;;;;;;;20.05;6.70;;;;;;;-0.39;100.00;100315.22;5112783;28;20111;-81
2021/12/09 05:55:25;;;;;;;18.80;6.30;;;;;;;-0.69;100.00;100269.47;5112823;28;20111;-74
2021/12/09 05:57:50;;;;;;;13.07;6.60;;;;;;;-0.39;100.00;100316.03;5112719;28;20024;-76
2021/12/09 06:00:16;;;;;;;13.57;6.85;;;;;;;-0.51;100.00;100290.97;5112506;28;20106;-76
2021/12/09 06:02:42;;;;;;;14.82;6.97;;;;;;;-0.43;100.00;100301.75;5112525;28;20032;-82
2021/12/09 06:05:07;;;;;;;20.30;8.10;;;;;;;-0.55;100.00;100289.41;5112256;28;20108;-77
2021/12/09 06:07:33;;;;;;;16.77;6.93;;;;;;;-0.45;100.00;100302.66;5112849;28;20043;-78
2021/12/09 06:10:00;;;;;;;14.80;6.72;;;;;;;-0.40;100.00;100313.50;5112683;28;20032;-75
2021/12/09 06:12:26;;;;;;;15.00;6.78;;;;;;;-0.70;100.00;100272.84;5114977;28;20039;-75
2021/12/09 06:14:52;;;;;;;15.80;6.68;;;;;;;-0.45;100.00;100306.03;5116154;28;20030;-77
2021/12/09 06:17:17;;;;;;;16.83;7.68;;;;;;;-0.45;100.00;100310.28;5116342;28;20390;-79
2021/12/09 06:19:43;;;;;;;16.95;7.25;;;;;;;-0.45;100.00;100308.56;5116210;28;20472;-75
2021/12/09 06:22:08;;;;;;;18.50;6.88;;;;;;;-0.72;100.00;100269.53;5114700;28;20035;-76
2021/12/09 06:24:33;;;;;;;17.02;7.53;;;;;;;-0.47;100.00;100310.31;5115943;28;20019;-77
2021/12/09 06:26:59;;;;;;;15.95;7.40;;;;;;;-0.86;100.00;100253.88;5116129;28;20020;-85
2021/12/09 06:29:25;;;;;;;19.90;7.88;;;;;;;-0.50;100.00;100304.47;5115726;28;20444;-83
2021/12/09 06:31:50;;;;;;;16.02;7.20;;;;;;;-0.71;100.00;100278.81;5115975;28;20030;-76
2021/12/09 06:34:15;;;;;;;17.48;7.35;;;;;;;-0.51;100.00;100306.19;5115769;28;20024;-76
2021/12/09 06:36:41;;;;;;;19.75;7.45;;;;;;;-0.51;100.00;100300.28;5115807;28;20099;-76
2021/12/09 06:39:07;;;;;;;15.15;7.00;;;;;;;-0.51;100.00;100311.25;5115703;28;20026;-78
2021/12/09 06:41:32;;;;;;;16.90;7.70;;;;;;;-0.53;100.00;100319.78;5115957;27;20019;-80
2021/12/09 06:43:58;;;;;;;16.88;7.55;;;;;;;-0.92;100.00;100270.03;5115623;28;20031;-76
2021/12/09 06:46:23;;;;;;;15.65;7.28;;;;;;;-0.98;100.00;100249.94;5115858;28;20024;-77
2021/12/09 06:48:49;;;;;;;16.65;8.48;;;;;;;-0.74;100.00;100295.81;5115644;28;20059;-81
2021/12/09 06:51:14;;;;;;;21.50;7.53;;;;;;;-0.53;100.00;100335.84;5115503;28;20024;-76
2021/12/09 06:53:39;;;;;;;22.60;7.47;;;;;;;-0.69;100.00;100316.78;5115609;28;20062;-84
2021/12/09 06:56:06;;;;;;;16.25;7.13;;;;;;;-0.55;100.00;100340.13;5113771;28;20028;-77
2021/12/09 06:58:31;;;;;;;15.80;7.30;;;;;;;-0.55;100.00;100334.22;5115211;27;20035;-82
2021/12/09 07:00:57;;;;;;;19.92;7.70;;;;;;;-0.58;100.00;100337.66;5115298;27;20019;-87
2021/12/09 07:03:23;;;;;;;14.93;7.65;;;;;;;-0.55;100.00;100331.69;5115814;28;20076;-75
2021/12/09 07:05:51;;;;;;;21.88;8.18;;;;;;;-0.72;100.00;100304.19;5113938;28;20044;-75
2021/12/09 07:08:17;;;;;;;15.70;7.72;;;;;;;-0.55;100.00;100340.13;5136159;27;20110;-86
2021/12/09 07:10:43;;;;;;;16.88;8.50;;;;;;;-0.52;100.00;100334.13;5135672;27;20103;-79
2021/12/09 07:13:09;;;;;;;17.15;7.82;;;;;;;-0.56;100.00;100328.31;5135622;27;20023;-76
2021/12/09 07:15:35;;;;;;;16.00;8.48;;;;;;;-0.51;100.00;100339.16;5135739;27;20521;-76
2021/12/09 07:18:01;;;;;;;17.02;7.65;;;;;;;-0.50;100.00;100338.28;5135516;27;20084;-74
2021/12/09 07:20:27;;;;;;;20.35;8.43;;;;;;;-0.49;100.00;100334.91;5136220;27;20019;-78
2021/12/09 07:22:54;;;;;;;20.00;8.52;;;;;;;-0.48;100.00;100344.16;5135227;27;20027;-74
2021/12/09 07:25:21;;;;;;;19.60;8.30;;;;;;;-0.50;100.00;100338.28;5135044;27;20108;-80
2021/12/09 07:27:47;;;;;;;18.08;8.55;;;;;;;-0.49;100.00;100339.97;5135166;27;20023;-74
2021/12/09 07:30:15;;;;;;;18.05;8.20;;;;;;;-0.50;100.00;100337.44;5135342;27;20075;-81
2021/12/09 07:32:41;;;;;;;21.15;8.48;;;;;;;-0.50;100.00;100350.97;5135053;27;20102;-78
2021/12/09 07:35:08;;;;;;;19.70;8.60;;;;;;;-0.79;100.00;100295.91;5135131;27;20027;-75
2021/12/09 07:37:36;;;;;;;21.63;8.60;;;;;;;-0.51;100.00;100356.91;5135066;27;20027;-84
2021/12/09 07:40:02;;;;;;;21.08;7.65;;;;;;;-0.52;100.00;100352.72;5135116;27;20034;-83
2021/12/09 07:42:28;;;;;;;18.50;8.05;;;;;;;-0.50;100.00;100358.56;5134696;27;20030;-77
2021/12/09 07:44:53;;;;;;;19.48;8.80;;;;;;;-0.47;100.00;100355.97;5134777;27;20034;-76
2021/12/09 07:47:18;;;;;;;18.17;8.40;;;;;;;-0.47;100.00;100355.16;5134915;27;20059;-76
2021/12/09 07:49:44;;;;;;;18.65;8.23;;;;;;;-0.48;100.00;100351.78;5134992;27;20031;-78
2021/12/09 07:52:10;;;;;;;18.23;7.78;;;;;;;-0.49;100.00;100355.19;5134861;27;20084;-83
2021/12/09 07:54:35;;;;;;;22.83;9.48;;;;;;;-0.46;100.00;100346.66;5134523;27;20027;-79
2021/12/09 07:57:01;;;;;;;18.10;8.50;;;;;;;-0.44;100.00;100344.91;5134848;27;20023;-80
2021/12/09 07:59:26;;;;;;;19.98;8.25;;;;;;;-0.65;100.00;100313.31;5134975;27;20107;-82
2021/12/09 08:01:52;;;;;;;15.88;8.63;;;;;;;-0.39;100.00;100348.19;5134673;27;20049;-81
2021/12/09 08:04:17;;;;;;;20.50;9.02;;;;;;;-0.37;100.00;100352.34;5134377;27;20096;-83
2021/12/09 08:06:43;;;;;;;16.00;8.98;;;;;;;-0.46;100.00;100341.59;5134639;27;20035;-82
2021/12/09 08:09:09;;;;;;;20.73;8.32;;;;;;;-0.32;100.00;100363.19;5134230;27;20035;-80
2021/12/09 08:11:37;;;;;;;19.13;8.60;;;;;;;-0.45;100.00;100335.66;5134918;27;20025;-82
2021/12/09 08:14:07;;;;;;;21.67;8.88;;;;;;;-0.23;100.00;100369.72;5134504;27;20030;-82
2021/12/09 08:16:37;;;;;;;20.70;9.05;;;;;;;-0.21;100.00;100360.38;5133333;27;20031;-81
2021/12/09 08:19:05;;;;;;;18.48;9.05;;;;;;;-0.24;100.00;100360.44;5134690;27;20023;-83
2021/12/09 08:21:33;;;;;;;14.55;8.30;;;;;;;-0.16;100.00;100371.25;5134426;27;20019;-82
2021/12/09 08:24:02;;;;;;;16.98;9.15;;;;;;;-0.07;100.00;100372.72;5134294;27;20030;-76
2021/12/09 08:26:28;;;;;;;16.00;9.40;;;;;;;0.02;100.00;100369.09;5133085;27;20381;-79
2021/12/09 08:28:53;;;;;;;18.70;9.98;;;;;;;0.13;100.00;100360.31;5134085;27;20031;-82
2021/12/09 08:31:19;;;;;;;20.45;9.48;;;;;;;0.18;100.00;100350.84;5134267;27;20026;-80
2021/12/09 08:33:44;;;;;;;22.05;9.80;;;;;;;0.30;100.00;100356.47;5133917;27;20024;-80
2021/12/09 08:36:10;;;;;;;18.20;8.43;;;;;;;0.14;100.00;100317.97;5134265;27;20106;-77
2021/12/09 08:38:35;;;;;;;16.80;8.10;;;;;;;0.18;100.00;100312.75;5134953;27;20024;-79
2021/12/09 08:41:02;;;;;;;15.70;8.40;;;;;;;0.63;100.00;100367.34;5135017;27;20034;-78
2021/12/09 08:43:27;;;;;;;14.40;8.63;;;;;;;0.73;100.00;100367.03;5132822;27;20039;-76
2021/12/09 08:45:53;;;;;;;20.23;8.32;;;;;;;0.49;100.00;100317.78;5134075;27;20157;-77
2021/12/09 08:48:19;;;;;;;14.88;7.78;;;;;;;0.91;100.00;100370.75;5134200;27;20027;-80
2021/12/09 08:50:45;;;;;;;18.05;7.97;;;;;;;0.84;99.64;100354.00;5132052;27;20038;-76
2021/12/09 08:53:16;;;;;;;13.82;6.93;;;;;;;1.03;98.76;100375.44;5132663;27;20049;-83
2021/12/09 08:55:42;;;;;;;14.65;7.13;;;;;;;1.10;98.94;100373.56;5133086;27;20034;-81
2021/12/09 08:58:08;;;;;;;15.77;7.05;;;;;;;0.93;98.52;100333.38;5133380;27;20373;-80
2021/12/09 09:00:35;;;;;;;15.45;7.00;;;;;;;1.20;97.83;100374.09;5133774;27;20031;-80
2021/12/09 09:03:02;;;;;;;15.18;7.78;;;;;;;1.25;97.72;100375.59;5133664;27;20028;-77
2021/12/09 09:05:29;;;;;;;14.13;6.40;;;;;;;1.30;97.68;100368.66;5133088;27;20054;-80
2021/12/09 09:07:54;;;;;;;18.08;7.15;;;;;;;1.36;97.06;100373.53;5133566;28;20035;-78
2021/12/09 09:10:23;;;;;;;13.70;6.78;;;;;;;1.42;97.00;100375.06;5133569;28;20098;-76
2021/12/09 09:12:50;;;;;;;15.23;6.57;;;;;;;1.40;96.90;100359.84;5133497;28;20470;-80
2021/12/09 09:15:18;;;;;;;14.93;6.50;;;;;;;1.55;96.80;100381.41;5133517;28;20027;-80
2021/12/09 09:17:45;;;;;;;15.23;6.82;;;;;;;1.57;96.41;100382.16;5133283;28;20031;-79
2021/12/09 09:20:14;;;;;;;17.10;6.88;;;;;;;1.63;96.42;100383.69;5133540;28;20027;-75
2021/12/09 09:22:40;;;;;;;15.18;6.60;;;;;;;1.66;95.93;100386.13;5133491;28;20062;-80
2021/12/09 09:25:08;;;;;;;14.50;7.10;;;;;;;1.69;95.63;100386.03;5133015;28;20473;-74
2021/12/09 09:27:35;;;;;;;16.80;7.95;;;;;;;1.52;95.75;100352.69;5133155;28;20123;-76
2021/12/09 09:30:02;;;;;;;17.85;7.20;;;;;;;1.78;95.30;100384.91;5133346;28;20079;-77
2021/12/09 09:32:28;;;;;;;13.50;6.68;;;;;;;1.81;95.28;100378.00;5133194;28;20058;-79
2021/12/09 09:34:54;;;;;;;15.70;7.35;;;;;;;1.86;95.61;100382.91;5133422;28;20470;-76
2021/12/09 09:37:20;;;;;;;13.60;7.60;;;;;;;1.92;95.26;100386.09;5133318;28;20061;-81
2021/12/09 09:39:47;;;;;;;17.40;7.93;;;;;;;1.92;95.48;100369.97;5133344;28;20106;-76
2021/12/09 09:44:49;;;;;;;15.10;7.78;;;;;;;2.17;94.60;100397.97;5133182;28;20494;-76
2021/12/09 09:47:16;;;;;;;19.30;7.60;;;;;;;2.20;94.58;100398.69;5118838;27;20074;-82
2021/12/09 09:49:42;;;;;;;14.85;7.68;;;;;;;2.23;94.42;100397.75;5137215;27;20019;-76
2021/12/09 09:52:09;;;;;;;18.20;8.13;;;;;;;2.26;94.38;100395.94;5118460;27;20045;-79
2021/12/09 09:54:39;;;;;;;18.17;8.23;;;;;;;1.89;93.52;100342.09;5137249;27;20024;-82
2021/12/09 09:57:05;;;;;;;17.67;8.43;;;;;;;2.25;93.82;100399.34;5137230;27;20031;-84
2021/12/09 09:59:31;;;;;;;19.73;8.20;;;;;;;2.29;94.45;100397.53;5118492;27;20039;-85
2021/12/09 10:01:56;;;;;;;17.52;8.45;;;;;;;1.98;93.91;100341.78;5136820;27;20412;-85
2021/12/09 10:04:48;;;;;;;16.48;7.95;;;;;;;2.18;93.97;100377.53;5136544;27;20045;-84
2021/12/09 10:07:17;;;;;;;16.00;8.15;;;;;;;1.96;93.64;100333.31;5136473;27;20526;-83
2021/12/09 10:09:43;;;;;;;18.88;8.40;;;;;;;2.24;93.40;100377.31;5137009;27;20024;-76
2021/12/09 10:12:08;;;;;;;16.25;8.77;;;;;;;2.45;93.36;100403.72;5136825;27;20019;-81
2021/12/09 10:14:37;;;;;;;15.60;8.07;;;;;;;2.48;93.75;100398.53;5136680;27;20038;-80
2021/12/09 10:17:12;;;;;;;14.10;7.97;;;;;;;2.50;93.23;100389.13;5136701;27;20019;-81
2021/12/09 10:20:05;;;;;;;16.55;8.65;;;;;;;2.57;93.75;100388.00;5136890;27;20027;-83
2021/12/09 10:22:34;;;;;;;18.45;8.63;;;;;;;2.61;93.28;100380.25;5136670;27;20536;-81
2021/12/09 10:25:02;;;;;;;19.02;9.52;;;;;;;2.49;93.25;100353.50;5136686;27;20039;-81
2021/12/09 10:27:33;;;;;;;17.52;8.73;;;;;;;2.72;92.99;100378.13;5136249;27;20110;-81
2021/12/09 10:30:22;;;;;;;17.40;9.02;;;;;;;2.67;93.33;100349.44;5136212;27;20019;-78
2021/12/09 10:32:49;;;;;;;17.52;8.52;;;;;;;2.83;93.05;100369.16;5136377;27;20373;-77
2021/12/09 10:35:17;;;;;;;15.55;8.57;;;;;;;2.88;92.58;100366.44;5136514;27;20027;-77
2021/12/09 10:37:50;;;;;;;17.25;8.98;;;;;;;2.48;92.12;100300.88;5136340;27;20027;-84
2021/12/09 10:40:19;;;;;;;16.45;8.60;;;;;;;2.58;92.15;100305.56;5136360;27;20019;-77
2021/12/09 10:42:53;;;;;;;17.80;8.63;;;;;;;3.03;92.69;100368.38;5135908;27;20019;-77
2021/12/09 10:45:23;;;;;;;13.25;8.60;;;;;;;2.70;92.72;100321.25;5136081;27;20031;-84
2021/12/09 10:47:54;;;;;;;17.25;9.13;;;;;;;3.06;92.57;100377.66;5136251;27;20093;-75
2021/12/09 10:50:41;;;;;;;18.25;8.23;;;;;;;2.98;92.09;100352.44;5136092;27;20030;-80
2021/12/09 10:55:59;;;;;;;17.08;9.20;;;;;;;3.19;92.13;100378.00;5135784;27;20474;-83
2021/12/09 10:58:29;;;;;;;18.17;9.45;;;;;;;2.50;91.65;100264.25;5135608;27;20370;-82
2021/12/09 11:01:02;;;;;;;17.02;8.10;;;;;;;3.20;92.38;100370.28;5117953;27;20066;-82
2021/12/09 11:03:43;;;;;;;14.57;8.55;;;;;;;3.02;91.38;100341.22;5135691;27;20051;-83
2021/12/09 11:06:15;;;;;;;15.85;8.20;;;;;;;3.22;91.60;100380.44;5135686;27;20043;-80
2021/12/09 11:08:45;;;;;;;15.18;8.18;;;;;;;3.15;92.22;100375.59;5135692;27;20047;-82
2021/12/09 11:11:19;;;;;;;14.90;8.20;;;;;;;3.12;91.98;100372.31;5135480;27;20062;-82
2021/12/09 11:13:53;;;;;;;13.23;8.68;;;;;;;3.16;92.36;100373.88;5135572;27;20024;-83
2021/12/09 11:16:26;;;;;;;12.88;8.98;;;;;;;3.08;92.23;100358.84;5135278;27;20023;-82
2021/12/09 11:18:57;;;;;;;14.40;8.88;;;;;;;3.24;92.25;100370.97;5136710;27;20019;-84
2021/12/09 11:21:32;;;;;;;16.95;8.98;;;;;;;3.31;92.46;100357.09;5137803;27;20019;-81
2021/12/09 11:24:04;;;;;;;16.58;10.98;;;;;;;3.15;91.92;100316.91;5135673;27;20031;-84
2021/12/09 11:29:25;;;;;;;13.77;8.30;;;;;;;3.06;91.38;100283.28;5051798;28;20029;-82
2021/12/09 11:31:59;;;;;;;15.80;8.27;;;;;;;3.37;91.11;100321.94;5051910;28;20291;-82